createdAt,value
2022-10-26T00:01:17.993Z,10.91
2022-10-26T00:03:47.287Z,10.95
2022-10-26T00:06:18.244Z,10.99
2022-10-26T00:08:46.125Z,10.99
2022-10-26T00:11:14.982Z,11.00
2022-10-26T00:13:42.649Z,11.01
2022-10-26T00:16:12.179Z,11.01
2022-10-26T00:18:39.882Z,11.00
2022-10-26T00:21:09.382Z,11.03
2022-10-26T00:23:38.419Z,11.05
2022-10-26T00:26:06.610Z,11.08
2022-10-26T00:28:34.158Z,11.09
2022-10-26T00:31:02.635Z,11.13
2022-10-26T00:33:30.729Z,11.16
2022-10-26T00:35:58.354Z,11.22
2022-10-26T00:38:25.934Z,11.24
2022-10-26T00:40:54.859Z,11.28
2022-10-26T00:43:39.565Z,11.31
2022-10-26T00:46:12.398Z,11.31
2022-10-26T00:48:44.207Z,11.29
2022-10-26T00:51:16.594Z,11.25
2022-10-26T00:53:44.853Z,11.19
2022-10-26T00:56:14.549Z,11.11
2022-10-26T00:58:42.442Z,11.05
2022-10-26T01:01:10.118Z,10.98
2022-10-26T01:03:39.086Z,10.90
2022-10-26T01:06:07.450Z,10.84
2022-10-26T01:08:35.448Z,10.77
2022-10-26T01:11:04.183Z,10.71
2022-10-26T01:13:36.795Z,10.64
2022-10-26T01:16:15.682Z,10.60
2022-10-26T01:18:51.981Z,10.54
2022-10-26T01:21:42.122Z,10.46
2022-10-26T01:24:23.971Z,10.41
2022-10-26T01:27:00.993Z,10.35
2022-10-26T01:29:49.438Z,10.30
2022-10-26T01:32:24.363Z,10.24
2022-10-26T01:35:00.977Z,10.18
2022-10-26T01:37:33.876Z,10.13
2022-10-26T01:40:07.241Z,10.08
2022-10-26T01:42:37.357Z,10.03
2022-10-26T01:45:08.379Z,10.01
2022-10-26T01:47:40.136Z,10.00
2022-10-26T01:50:09.810Z,10.00
2022-10-26T01:52:37.374Z,10.00
2022-10-26T01:55:27.871Z,9.98
2022-10-26T01:58:02.475Z,9.98
2022-10-26T02:00:33.746Z,9.97
2022-10-26T02:03:15.689Z,9.93
2022-10-26T02:05:55.386Z,9.92
2022-10-26T02:08:33.150Z,9.88
2022-10-26T02:11:11.981Z,9.86
2022-10-26T02:13:46.865Z,9.83
2022-10-26T02:16:21.804Z,9.81
2022-10-26T02:18:55.985Z,9.79
2022-10-26T02:21:27.781Z,9.77
2022-10-26T02:23:59.065Z,9.74
2022-10-26T02:26:30.061Z,9.71
2022-10-26T02:29:02.326Z,9.68
2022-10-26T02:31:32.073Z,9.66
2022-10-26T02:34:04.626Z,9.62
2022-10-26T02:36:37.451Z,9.59
2022-10-26T02:39:07.012Z,9.57
2022-10-26T02:41:36.760Z,9.51
2022-10-26T02:44:09.761Z,9.47
2022-10-26T02:46:37.999Z,9.42
2022-10-26T02:49:07.374Z,9.38
2022-10-26T02:51:40.986Z,9.34
2022-10-26T02:54:15.775Z,9.34
2022-10-26T02:56:48.153Z,9.31
2022-10-26T02:59:17.798Z,9.29
2022-10-26T03:01:46.100Z,9.26
2022-10-26T03:04:15.434Z,9.24
2022-10-26T03:06:43.005Z,9.24
2022-10-26T03:09:10.570Z,9.21
2022-10-26T03:11:38.213Z,9.18
2022-10-26T03:14:05.925Z,9.15
2022-10-26T03:16:33.446Z,9.07
2022-10-26T03:19:00.989Z,9.02
2022-10-26T03:21:29.880Z,8.97
2022-10-26T03:23:57.482Z,8.91
2022-10-26T03:26:25.035Z,8.89
2022-10-26T03:28:52.611Z,8.88
2022-10-26T03:31:20.311Z,8.84
2022-10-26T03:33:48.030Z,8.82
2022-10-26T03:36:15.577Z,8.78
2022-10-26T03:38:44.501Z,8.74
2022-10-26T03:41:12.051Z,8.70
2022-10-26T03:43:39.581Z,8.69
2022-10-26T03:46:07.230Z,8.67
2022-10-26T03:48:34.773Z,8.66
2022-10-26T03:51:02.341Z,8.63
2022-10-26T03:53:29.853Z,8.61
2022-10-26T03:55:58.742Z,8.59
2022-10-26T03:58:26.868Z,8.57
2022-10-26T04:00:54.494Z,8.55
2022-10-26T04:03:22.037Z,8.52
2022-10-26T04:05:49.570Z,8.52
2022-10-26T04:08:17.122Z,8.51
2022-10-26T04:10:47.074Z,8.51
2022-10-26T04:13:15.991Z,8.50
2022-10-26T04:15:43.602Z,8.51
2022-10-26T04:18:12.936Z,8.50
2022-10-26T04:20:42.087Z,8.46
2022-10-26T04:23:13.000Z,8.42
2022-10-26T04:25:40.923Z,8.38
2022-10-26T04:28:09.726Z,8.34
2022-10-26T04:30:39.387Z,8.34
2022-10-26T04:33:07.857Z,8.32
2022-10-26T04:35:35.439Z,8.32
2022-10-26T04:38:04.761Z,8.31
2022-10-26T04:40:33.521Z,8.28
2022-10-26T04:43:01.199Z,8.27
2022-10-26T04:45:30.789Z,8.26
2022-10-26T04:48:06.070Z,8.28
2022-10-26T04:50:33.968Z,8.30
2022-10-26T04:53:01.527Z,8.37
2022-10-26T04:55:29.106Z,8.42
2022-10-26T04:57:58.635Z,8.47
2022-10-26T05:00:30.082Z,8.52
2022-10-26T05:03:00.622Z,8.58
2022-10-26T05:05:29.923Z,8.62
2022-10-26T05:07:58.124Z,8.69
2022-10-26T05:10:26.419Z,8.74
2022-10-26T05:12:54.762Z,8.79
2022-10-26T05:15:22.621Z,8.83
2022-10-26T05:17:56.573Z,8.87
2022-10-26T05:20:29.254Z,8.90
2022-10-26T05:22:58.966Z,8.93
2022-10-26T05:25:26.878Z,8.95
2022-10-26T05:27:58.892Z,8.98
2022-10-26T05:30:26.472Z,9.00
2022-10-26T05:32:57.426Z,9.01
2022-10-26T05:35:25.962Z,9.03
2022-10-26T05:37:53.931Z,9.05
2022-10-26T05:40:23.283Z,9.06
2022-10-26T05:42:51.534Z,9.07
2022-10-26T05:45:19.351Z,9.09
2022-10-26T05:47:47.974Z,9.10
2022-10-26T05:50:15.934Z,9.09
2022-10-26T05:52:44.656Z,9.08
2022-10-26T05:55:14.062Z,9.08
2022-10-26T05:57:43.907Z,9.08
2022-10-26T06:00:16.593Z,9.08
2022-10-26T06:02:53.750Z,9.06
2022-10-26T06:05:25.113Z,9.06
2022-10-26T06:07:53.223Z,9.06
2022-10-26T06:10:21.797Z,9.05
2022-10-26T06:12:51.652Z,9.05
2022-10-26T06:15:21.230Z,9.06
2022-10-26T06:18:02.521Z,9.08
2022-10-26T06:20:42.801Z,9.11
2022-10-26T06:23:38.604Z,9.14
2022-10-26T06:26:11.934Z,9.16
2022-10-26T06:28:50.736Z,9.20
2022-10-26T06:31:18.694Z,9.23
2022-10-26T06:33:46.811Z,9.26
2022-10-26T06:36:22.780Z,9.29
2022-10-26T06:38:55.318Z,9.30
2022-10-26T06:41:24.302Z,9.35
2022-10-26T06:43:53.979Z,9.39
2022-10-26T06:46:31.965Z,9.44
2022-10-26T06:49:06.581Z,9.52
2022-10-26T06:51:42.088Z,9.59
2022-10-26T06:54:17.825Z,9.66
2022-10-26T06:56:47.179Z,9.79
2022-10-26T06:59:24.254Z,9.91
2022-10-26T07:01:51.938Z,10.01
2022-10-26T07:04:19.534Z,10.15
2022-10-26T07:06:47.115Z,10.28
2022-10-26T07:09:14.683Z,10.33
2022-10-26T07:11:42.402Z,10.39
2022-10-26T07:14:09.938Z,10.46
2022-10-26T07:16:38.818Z,10.49
2022-10-26T07:19:06.397Z,10.53
2022-10-26T07:21:33.963Z,10.59
2022-10-26T07:24:01.499Z,10.63
2022-10-26T07:26:29.064Z,10.66
2022-10-26T07:28:56.586Z,10.72
2022-10-26T07:31:24.154Z,10.79
2022-10-26T07:33:54.600Z,10.84
2022-10-26T07:36:22.446Z,10.92
2022-10-26T07:38:52.765Z,10.98
2022-10-26T07:41:20.435Z,11.09
2022-10-26T07:43:50.671Z,11.15
2022-10-26T07:46:18.469Z,11.19
2022-10-26T07:48:46.119Z,11.26
2022-10-26T07:51:15.570Z,11.33
2022-10-26T07:53:43.333Z,11.42
2022-10-26T07:56:11.486Z,11.43
2022-10-26T07:58:39.337Z,11.57
2022-10-26T08:01:08.331Z,11.66
2022-10-26T08:03:36.103Z,11.72
2022-10-26T08:06:04.970Z,11.73
2022-10-26T08:08:34.166Z,11.76
2022-10-26T08:11:01.934Z,11.84
2022-10-26T08:13:29.504Z,11.96
2022-10-26T08:16:01.047Z,12.08
2022-10-26T08:18:29.217Z,12.18
2022-10-26T08:21:10.683Z,12.37
2022-10-26T08:23:41.783Z,12.50
2022-10-26T08:26:11.346Z,12.62
2022-10-26T08:28:39.815Z,12.67
2022-10-26T08:31:08.523Z,12.72
2022-10-26T08:33:36.063Z,12.86
2022-10-26T08:36:06.162Z,13.03
2022-10-26T08:38:34.486Z,13.10
2022-10-26T08:41:08.662Z,13.20
2022-10-26T08:43:41.815Z,13.34
2022-10-26T08:46:14.672Z,13.47
2022-10-26T08:48:47.248Z,13.59
2022-10-26T08:51:19.414Z,13.70
2022-10-26T08:53:52.346Z,13.70
2022-10-26T08:56:24.766Z,13.81
2022-10-26T08:58:56.457Z,13.97
2022-10-26T09:01:24.520Z,14.10
2022-10-26T09:03:52.610Z,14.22
2022-10-26T09:06:28.758Z,14.39
2022-10-26T09:09:04.362Z,14.49
2022-10-26T09:11:54.093Z,14.58
2022-10-26T09:14:29.470Z,14.71
2022-10-26T09:17:05.652Z,14.80
2022-10-26T09:19:49.470Z,14.84
2022-10-26T09:22:25.160Z,14.81
2022-10-26T09:24:55.885Z,14.79
2022-10-26T09:27:29.069Z,14.77
2022-10-26T09:29:58.788Z,14.79
2022-10-26T09:32:32.170Z,14.89
2022-10-26T09:35:05.194Z,14.90
2022-10-26T09:37:35.157Z,14.94
2022-10-26T09:40:12.619Z,15.02
2022-10-26T09:42:45.246Z,15.06
2022-10-26T09:45:19.083Z,15.08
2022-10-26T09:47:52.862Z,15.25
2022-10-26T09:50:25.194Z,15.45
2022-10-26T09:52:53.163Z,15.63
2022-10-26T09:55:22.544Z,15.71
2022-10-26T09:57:54.734Z,15.76
2022-10-26T10:00:24.701Z,15.78
2022-10-26T10:02:54.843Z,15.88
2022-10-26T10:05:39.167Z,15.98
2022-10-26T10:08:18.880Z,16.06
2022-10-26T10:11:00.946Z,16.12
2022-10-26T10:13:31.653Z,16.03
2022-10-26T10:16:05.254Z,16.21
2022-10-26T10:18:33.978Z,16.41
2022-10-26T10:21:02.653Z,16.64
2022-10-26T10:23:32.970Z,16.80
2022-10-26T10:26:07.758Z,17.03
2022-10-26T10:28:37.133Z,17.13
2022-10-26T10:31:07.057Z,17.26
2022-10-26T10:33:37.399Z,17.34
2022-10-26T10:36:09.170Z,17.45
2022-10-26T10:38:44.993Z,17.41
2022-10-26T10:41:18.709Z,17.43
2022-10-26T10:43:50.641Z,17.40
2022-10-26T10:46:25.014Z,17.40
2022-10-26T10:48:56.649Z,17.46
2022-10-26T10:51:26.701Z,17.60
2022-10-26T10:53:56.820Z,17.57
2022-10-26T10:56:38.670Z,17.50
2022-10-26T10:59:37.242Z,17.50
2022-10-26T11:02:30.239Z,17.61
2022-10-26T11:05:13.194Z,17.59
2022-10-26T11:07:48.281Z,17.61
2022-10-26T11:10:19.718Z,17.63
2022-10-26T11:12:53.498Z,17.54
2022-10-26T11:15:26.779Z,17.58
2022-10-26T11:18:04.950Z,17.63
2022-10-26T11:20:36.371Z,17.75
2022-10-26T11:23:10.116Z,17.84
2022-10-26T11:25:45.662Z,18.10
2022-10-26T11:28:18.641Z,18.20
2022-10-26T11:30:53.174Z,18.41
2022-10-26T11:33:26.257Z,18.39
2022-10-26T11:35:59.610Z,18.56
2022-10-26T11:38:45.546Z,18.67
2022-10-26T11:41:24.133Z,18.84
2022-10-26T11:43:58.793Z,18.83
2022-10-26T11:46:31.391Z,18.71
2022-10-26T11:49:04.022Z,18.58
2022-10-26T11:51:39.570Z,18.44
2022-10-26T11:54:12.459Z,18.37
2022-10-26T11:56:45.215Z,18.39
2022-10-26T11:59:19.334Z,18.58
2022-10-26T12:01:51.111Z,18.76
2022-10-26T12:04:21.337Z,18.87
2022-10-26T12:06:50.910Z,19.08
2022-10-26T12:09:22.923Z,18.97
2022-10-26T12:11:56.627Z,18.92
2022-10-26T12:14:29.907Z,18.85
2022-10-26T12:17:09.251Z,18.78
2022-10-26T12:19:44.498Z,18.80
2022-10-26T12:22:14.079Z,18.76
2022-10-26T12:24:45.844Z,18.64
2022-10-26T12:27:33.965Z,18.60
2022-10-26T12:30:31.614Z,18.61
2022-10-26T12:33:03.760Z,18.67
2022-10-26T12:35:44.840Z,18.67
2022-10-26T12:38:46.979Z,18.65
2022-10-26T12:41:25.739Z,18.55
2022-10-26T12:44:07.491Z,18.49
2022-10-26T12:46:41.898Z,18.43
2022-10-26T12:49:54.455Z,18.38
2022-10-26T12:52:31.529Z,18.30
2022-10-26T12:55:42.801Z,18.25
2022-10-26T12:58:34.899Z,18.17
2022-10-26T13:01:35.882Z,18.13
2022-10-26T13:04:19.466Z,18.12
2022-10-26T13:07:07.454Z,18.19
2022-10-26T13:09:37.635Z,18.22
2022-10-26T13:12:06.080Z,18.34
2022-10-26T13:14:37.830Z,18.36
2022-10-26T13:17:07.470Z,18.41
2022-10-26T13:19:42.884Z,18.33
2022-10-26T13:22:15.667Z,18.37
2022-10-26T13:24:52.345Z,18.46
2022-10-26T13:27:26.408Z,18.56
2022-10-26T13:30:20.405Z,18.66
2022-10-26T13:32:53.185Z,18.67
2022-10-26T13:35:23.417Z,18.70
2022-10-26T13:37:54.416Z,18.56
2022-10-26T13:40:26.227Z,18.55
2022-10-26T13:42:57.053Z,18.62
2022-10-26T13:45:28.362Z,18.59
2022-10-26T13:47:58.581Z,18.62
2022-10-26T13:50:32.027Z,18.57
2022-10-26T13:53:03.183Z,18.58
2022-10-26T13:55:36.674Z,18.51
2022-10-26T13:58:16.374Z,18.51
2022-10-26T14:01:03.149Z,18.45
2022-10-26T14:03:30.769Z,18.39
2022-10-26T14:05:58.597Z,18.29
2022-10-26T14:08:26.287Z,18.15
2022-10-26T14:10:59.077Z,18.04
2022-10-26T14:13:28.520Z,17.94
2022-10-26T14:15:58.894Z,17.87
2022-10-26T14:18:28.542Z,17.82
2022-10-26T14:21:00.410Z,17.78
2022-10-26T14:23:29.298Z,17.68
2022-10-26T14:25:59.307Z,17.64
2022-10-26T14:28:29.558Z,17.58
2022-10-26T14:31:14.026Z,17.56
2022-10-26T14:33:44.237Z,17.50
2022-10-26T14:36:12.491Z,17.45
2022-10-26T14:38:45.771Z,17.43
2022-10-26T14:41:17.627Z,17.39
2022-10-26T14:43:46.309Z,17.34
2022-10-26T14:46:17.174Z,17.32
2022-10-26T14:48:53.369Z,17.26
2022-10-26T14:51:22.777Z,17.22
2022-10-26T14:53:53.006Z,17.14
2022-10-26T14:56:31.697Z,17.09
2022-10-26T14:59:00.106Z,17.05
2022-10-26T15:01:33.361Z,16.99
2022-10-26T15:04:05.799Z,16.91
2022-10-26T15:06:39.181Z,16.83
2022-10-26T15:09:07.622Z,16.77
2022-10-26T15:11:42.825Z,16.71
2022-10-26T15:14:13.582Z,16.61
2022-10-26T15:16:41.686Z,16.54
2022-10-26T15:19:11.555Z,16.47
2022-10-26T15:21:41.058Z,16.40
2022-10-26T15:25:01.222Z,16.34
2022-10-26T15:27:31.022Z,16.28
2022-10-26T15:30:16.016Z,16.22
2022-10-26T15:32:43.712Z,16.17
2022-10-26T15:35:25.814Z,16.12
2022-10-26T15:37:55.254Z,16.05
2022-10-26T15:42:56.767Z,15.95
2022-10-26T15:45:27.349Z,15.89
2022-10-26T15:47:57.685Z,15.81
2022-10-26T15:50:29.506Z,15.76
2022-10-26T15:53:01.625Z,15.70
2022-10-26T15:55:30.022Z,15.64
2022-10-26T15:57:58.917Z,15.58
2022-10-26T16:00:26.431Z,15.52
2022-10-26T16:02:54.059Z,15.45
2022-10-26T16:05:21.740Z,15.38
2022-10-26T16:07:49.831Z,15.30
2022-10-26T16:10:22.457Z,15.24
2022-10-26T16:12:50.613Z,15.18
2022-10-26T16:15:21.990Z,15.12
2022-10-26T16:17:50.831Z,15.07
2022-10-26T16:20:22.629Z,15.02
2022-10-26T16:22:51.192Z,14.95
2022-10-26T16:25:21.450Z,14.88
2022-10-26T16:27:49.464Z,14.81
2022-10-26T16:30:20.655Z,14.73
2022-10-26T16:32:48.564Z,14.66
2022-10-26T16:35:16.794Z,14.58
2022-10-26T16:37:44.406Z,14.52
2022-10-26T16:40:12.915Z,14.44
2022-10-26T16:42:43.732Z,14.37
2022-10-26T16:45:11.785Z,14.29
2022-10-26T16:47:40.989Z,14.22
2022-10-26T16:50:09.633Z,14.17
2022-10-26T16:52:38.497Z,14.09
2022-10-26T16:55:08.406Z,14.03
2022-10-26T16:57:36.838Z,13.96
2022-10-26T17:00:05.169Z,13.93
2022-10-26T17:02:32.810Z,13.86
2022-10-26T17:05:04.400Z,13.81
2022-10-26T17:07:34.676Z,13.79
2022-10-26T17:10:02.198Z,13.76
2022-10-26T17:12:30.352Z,13.74
2022-10-26T17:14:58.840Z,13.71
2022-10-26T17:17:26.383Z,13.68
2022-10-26T17:19:54.113Z,13.65
2022-10-26T17:22:23.409Z,13.62
2022-10-26T17:24:51.280Z,13.62
2022-10-26T17:27:20.265Z,13.64
2022-10-26T17:29:47.808Z,13.66
2022-10-26T17:32:16.187Z,13.68
2022-10-26T17:34:43.967Z,13.71
2022-10-26T17:37:11.481Z,13.73
2022-10-26T17:39:40.382Z,13.77
2022-10-26T17:42:07.927Z,13.82
2022-10-26T17:44:38.893Z,13.88
2022-10-26T17:47:06.497Z,13.92
2022-10-26T17:49:36.260Z,13.97
2022-10-26T17:52:04.555Z,14.02
2022-10-26T17:54:32.111Z,14.07
2022-10-26T17:57:01.204Z,14.10
2022-10-26T17:59:28.959Z,14.15
2022-10-26T18:01:56.744Z,14.17
2022-10-26T18:04:24.385Z,14.20
2022-10-26T18:06:51.914Z,14.22
2022-10-26T18:09:19.704Z,14.24
2022-10-26T18:11:50.716Z,14.26
2022-10-26T18:14:22.626Z,14.29
2022-10-26T18:16:50.179Z,14.32
2022-10-26T18:19:17.779Z,14.36
2022-10-26T18:21:45.358Z,14.38
2022-10-26T18:24:13.171Z,14.40
2022-10-26T18:26:40.721Z,14.43
2022-10-26T18:29:08.293Z,14.44
2022-10-26T18:31:37.169Z,14.46
2022-10-26T18:34:06.957Z,14.48
2022-10-26T18:36:35.081Z,14.50
2022-10-26T18:39:02.707Z,14.51
2022-10-26T18:41:30.268Z,14.53
2022-10-26T18:43:59.802Z,14.52
2022-10-26T18:46:29.777Z,14.55
2022-10-26T18:49:00.609Z,14.55
2022-10-26T18:51:31.582Z,14.56
2022-10-26T18:53:59.753Z,14.58
2022-10-26T18:56:28.131Z,14.60
2022-10-26T18:58:58.954Z,14.61
2022-10-26T19:01:28.320Z,14.64
2022-10-26T19:03:59.273Z,14.65
2022-10-26T19:06:28.673Z,14.66
2022-10-26T19:08:56.660Z,14.68
2022-10-26T19:11:25.873Z,14.69
2022-10-26T19:13:54.252Z,14.69
2022-10-26T19:19:15.513Z,14.73
2022-10-26T19:21:43.109Z,14.73
2022-10-26T19:24:14.524Z,14.72
2022-10-26T19:26:43.850Z,14.70
2022-10-26T19:29:14.487Z,14.71
2022-10-26T19:31:43.610Z,14.69
2022-10-26T19:34:12.582Z,14.68
2022-10-26T19:36:44.721Z,14.66
2022-10-26T19:39:14.045Z,14.66
2022-10-26T19:41:41.591Z,14.64
2022-10-26T19:44:11.366Z,14.64
2022-10-26T19:46:39.551Z,14.65
2022-10-26T19:49:07.513Z,14.66
2022-10-26T19:51:35.214Z,14.66
2022-10-26T19:54:06.658Z,14.66
2022-10-26T19:56:35.296Z,14.65
2022-10-26T19:59:03.087Z,14.62
2022-10-26T20:01:30.710Z,14.61
2022-10-26T20:03:58.395Z,14.57
2022-10-26T20:06:25.975Z,14.55
2022-10-26T20:08:53.615Z,14.55
2022-10-26T20:11:22.681Z,14.54
2022-10-26T20:13:50.259Z,14.55
2022-10-26T20:16:18.496Z,14.58
2022-10-26T20:18:48.971Z,14.59
2022-10-26T20:21:17.896Z,14.63
2022-10-26T20:23:46.056Z,14.63
2022-10-26T20:26:18.366Z,14.64
2022-10-26T20:28:51.326Z,14.65
2022-10-26T20:31:19.356Z,14.64
2022-10-26T20:33:50.589Z,14.64
2022-10-26T20:36:18.181Z,14.64
2022-10-26T20:38:46.234Z,14.63
2022-10-26T20:41:14.178Z,14.65
2022-10-26T20:43:42.765Z,14.63
2022-10-26T20:46:23.574Z,14.63
2022-10-26T20:48:52.272Z,14.61
2022-10-26T20:51:25.260Z,14.63
2022-10-26T20:54:02.435Z,14.65
2022-10-26T20:56:30.751Z,14.65
2022-10-26T20:59:01.409Z,14.66
2022-10-26T21:01:32.602Z,14.67
2022-10-26T21:04:01.934Z,14.67
2022-10-26T21:06:29.694Z,14.69
2022-10-26T21:08:58.243Z,14.70
2022-10-26T21:11:26.773Z,14.68
2022-10-26T21:13:55.353Z,14.68
2022-10-26T21:16:23.113Z,14.69
2022-10-26T21:18:52.063Z,14.69
2022-10-26T21:21:19.582Z,14.69
2022-10-26T21:23:47.160Z,14.68
2022-10-26T21:26:14.669Z,14.68
2022-10-26T21:28:45.631Z,14.69
2022-10-26T21:31:15.087Z,14.69
2022-10-26T21:33:42.956Z,14.69
2022-10-26T21:36:13.591Z,14.68
2022-10-26T21:38:42.078Z,14.68
2022-10-26T21:41:11.662Z,14.69
2022-10-26T21:43:40.889Z,14.69
2022-10-26T21:46:09.435Z,14.69
2022-10-26T21:48:37.598Z,14.71
2022-10-26T21:51:06.560Z,14.71
2022-10-26T21:53:35.445Z,14.72
2022-10-26T21:56:03.930Z,14.74
2022-10-26T21:58:31.637Z,14.73
2022-10-26T22:01:06.067Z,14.73
2022-10-26T22:03:33.942Z,14.71
2022-10-26T22:06:01.751Z,14.68
2022-10-26T22:08:29.890Z,14.67
2022-10-26T22:10:59.095Z,14.66
2022-10-26T22:13:26.670Z,14.65
2022-10-26T22:16:05.478Z,14.64
2022-10-26T22:18:35.707Z,14.65
2022-10-26T22:21:04.423Z,14.63
2022-10-26T22:23:33.745Z,14.57
2022-10-26T22:26:07.747Z,14.53
2022-10-26T22:28:39.952Z,14.47
2022-10-26T22:31:12.746Z,14.40
2022-10-26T22:33:40.351Z,14.35
2022-10-26T22:36:09.640Z,14.31
2022-10-26T22:38:37.277Z,14.29
2022-10-26T22:41:06.437Z,14.29
2022-10-26T22:43:34.081Z,14.24
2022-10-26T22:46:02.333Z,14.20
2022-10-26T22:48:30.199Z,14.17
2022-10-26T22:50:57.922Z,14.16
2022-10-26T22:53:25.775Z,14.11
2022-10-26T22:55:53.629Z,14.08
2022-10-26T22:58:22.538Z,14.03
2022-10-26T23:00:50.390Z,13.97
2022-10-26T23:03:17.985Z,13.95
2022-10-26T23:05:49.230Z,13.90
2022-10-26T23:08:16.753Z,13.84
2022-10-26T23:10:44.293Z,13.80
2022-10-26T23:13:11.806Z,13.75
2022-10-26T23:15:40.730Z,13.69
2022-10-26T23:18:08.283Z,13.65
2022-10-26T23:20:36.865Z,13.60
2022-10-26T23:23:04.422Z,13.56
2022-10-26T23:25:32.167Z,13.51
2022-10-26T23:27:59.698Z,13.47
2022-10-26T23:30:27.343Z,13.45
2022-10-26T23:32:57.258Z,13.42
2022-10-26T23:35:24.867Z,13.37
2022-10-26T23:37:52.417Z,13.34
2022-10-26T23:40:19.937Z,13.29
2022-10-26T23:42:47.862Z,13.27
2022-10-26T23:45:15.642Z,13.23
2022-10-26T23:47:43.204Z,13.21
2022-10-26T23:50:12.126Z,13.18
2022-10-26T23:52:39.704Z,13.15
2022-10-26T23:55:07.901Z,13.11
2022-10-26T23:57:35.446Z,13.08
